Amanda A — WDF9562 — position and weather

sailwx.info

Track history (hours):
 
Tides and Currents Weather Stations Pressure Air Temp Water Temp Dewpoint Dewpoint Depression Visibility Wind Speed Wind Dir Waves Ship Positions

Amanda A

Owner: REC Marine LLC, Galliano, LA. More information available from US FCC via Universal Licensing System.

Last reported at 2018-Jun-21 21:00 UTC. Time now 2018-Jun-21 21:23 UTC.
Position N 29°56' W 093°08'.

Length 6 m; draft 1.9 m.

Type: Tug. MMSI: 367506440.

Date/timePositionNaut miles runAvg speedWind from/ knotsBaromVisibWave heightAir tempDewpointWater temp
2018-Jun-21 21:00N 29°56' W 093°08'0 0.1
2018-Jun-21 19:01N 29°56' W 093°08'0 0.4
2018-Jun-21 18:57N 29°56' W 093°08'0 0.9
2018-Jun-21 18:25N 29°56' W 093°08'0 0.4
2018-Jun-21 17:57N 29°57' W 093°08'0 0.0
2018-Jun-21 17:23N 29°57' W 093°08'0 0.2
2018-Jun-21 15:34N 29°56' W 093°08'3 2.3
2018-Jun-21 14:17N 29°56' W 093°05'2 7.7
2018-Jun-21 13:59N 29°56' W 093°07'1 0.1
2018-Jun-20 23:39N 29°56' W 093°08'0 0.1
2018-Jun-20 22:28N 29°56' W 093°08'1 1.5
2018-Jun-20 22:00N 29°57' W 093°09'0 0.4
2018-Jun-20 21:27N 29°57' W 093°09'0 0.0
2018-Jun-20 20:59N 29°57' W 093°09'0 0.0
2018-Jun-20 20:30N 29°57' W 093°09'0 0.0
2018-Jun-20 20:00N 29°57' W 093°09'0 0.0
2018-Jun-20 19:29N 29°57' W 093°09'0 0.0
2018-Jun-20 19:00N 29°57' W 093°09'0 0.0
2018-Jun-20 15:37N 29°57' W 093°09'0 0.3
2018-Jun-20 15:30N 29°57' W 093°09'3 0.4
2018-Jun-20 07:22N 29°56' W 093°05'2 5.3
2018-Jun-20 06:59N 29°56' W 093°07'2 2.7
2018-Jun-20 06:21N 29°56' W 093°09'1 0.3
2018-Jun-20 03:35N 29°57' W 093°09'0 0.4
2018-Jun-20 03:27N 29°57' W 093°09'0 0.1
2018-Jun-20 03:00N 29°57' W 093°09'0 0.0
2018-Jun-20 02:30N 29°57' W 093°09'0 0.0
2018-Jun-20 02:00N 29°57' W 093°09'0 0.0
2018-Jun-20 01:30N 29°57' W 093°09'0 0.0
2018-Jun-20 01:00N 29°57' W 093°09'0 0.0
2018-Jun-20 00:30N 29°57' W 093°09'0 0.0
2018-Jun-20 00:00N 29°57' W 093°09'0 0.0
2018-Jun-19 23:30N 29°57' W 093°09'0 0.0
2018-Jun-19 23:00N 29°57' W 093°09'0 0.0
2018-Jun-19 22:30N 29°57' W 093°09'0 0.0
2018-Jun-19 22:00N 29°57' W 093°09'0 0.0
2018-Jun-19 21:30N 29°57' W 093°09'0 0.0
2018-Jun-19 21:00N 29°57' W 093°09'0 0.0
2018-Jun-19 20:30N 29°57' W 093°09'0 0.0
2018-Jun-19 20:00N 29°57' W 093°09'0 0.0
2018-Jun-19 19:30N 29°57' W 093°09'0 0.0
2018-Jun-19 19:00N 29°57' W 093°09'0 0.0
2018-Jun-19 18:30N 29°57' W 093°09'0 0.0
2018-Jun-19 18:00N 29°57' W 093°09'0 0.0
2018-Jun-19 17:30N 29°57' W 093°09'0 0.0
2018-Jun-19 16:59N 29°57' W 093°09'0 0.0
2018-Jun-19 16:30N 29°57' W 093°09'0 0.0
2018-Jun-19 15:57N 29°57' W 093°09'0 0.0
2018-Jun-19 15:30N 29°57' W 093°09'0 0.0
2018-Jun-19 15:00N 29°57' W 093°09'0 0.0
2018-Jun-19 14:30N 29°57' W 093°09'0 0.0
2018-Jun-19 07:20N 29°57' W 093°09'0 0.0
2018-Jun-19 06:48N 29°57' W 093°09'0 0.0
2018-Jun-19 06:14N 29°57' W 093°09'0 0.0
2018-Jun-19 05:57N 29°57' W 093°09'0 0.0
2018-Jun-19 05:23N 29°57' W 093°09'0 0.0
2018-Jun-19 04:58N 29°57' W 093°09'0 0.0
2018-Jun-19 04:30N 29°57' W 093°09'0 0.0
2018-Jun-19 04:00N 29°57' W 093°09'0 0.0
2018-Jun-19 03:29N 29°57' W 093°09'0 0.0
2018-Jun-19 02:59N 29°57' W 093°09'0 0.0
2018-Jun-19 02:06N 29°57' W 093°09'0 0.0
2018-Jun-19 02:00N 29°57' W 093°09'0 0.0
2018-Jun-19 00:49N 29°57' W 093°09'0 0.0
2018-Jun-19 00:29N 29°57' W 093°09'0 1.0
2018-Jun-18 23:58N 29°56' W 093°09'4 0.1
2018-Jun-17 08:37N 29°56' W 093°05'1 4.8
2018-Jun-17 08:26N 29°56' W 093°06'2 5.0
2018-Jun-17 08:00N 29°56' W 093°08'1 1.6
2018-Jun-17 07:30N 29°57' W 093°09'0 0.3
2018-Jun-17 07:00N 29°57' W 093°09'0 0.1
2018-Jun-17 05:47N 29°57' W 093°09'0 0.0
2018-Jun-17 05:24N 29°57' W 093°09'0 0.0
2018-Jun-17 04:59N 29°57' W 093°09'0 0.0
2018-Jun-17 04:17N 29°57' W 093°09'0 0.0
2018-Jun-17 03:55N 29°57' W 093°09'0 0.0
2018-Jun-17 03:29N 29°57' W 093°09'0 0.0
2018-Jun-17 02:59N 29°57' W 093°09'0 0.0
2018-Jun-17 02:26N 29°57' W 093°09'0 0.0
2018-Jun-17 01:59N 29°57' W 093°09'0 0.0
2018-Jun-17 01:25N 29°57' W 093°09'0 0.0
2018-Jun-17 00:29N 29°57' W 093°09'0 0.2
2018-Jun-16 23:56N 29°57' W 093°09'2 0.9
2018-Jun-16 21:23N 29°56' W 093°06'3 6.4
2018-Jun-16 20:59N 29°56' W 093°09'1 1.6
2018-Jun-16 20:28N 29°57' W 093°09'0 0.2
2018-Jun-16 20:00N 29°57' W 093°09'0 0.0
2018-Jun-16 19:30N 29°57' W 093°09'0 0.0
2018-Jun-16 18:59N 29°57' W 093°09'2 2.9
2018-Jun-16 18:24N 29°56' W 093°07'2 5.5
2018-Jun-16 18:00N 29°56' W 093°04'0 0.0
2018-Jun-16 17:30N 29°56' W 093°04'0 0.5
2018-Jun-16 16:58N 29°56' W 093°05'3 6.9
2018-Jun-16 16:30N 29°56' W 093°08'1 0.0
2018-Jun-16 00:51N 29°57' W 093°09'0 0.0
2018-Jun-16 00:27N 29°57' W 093°09'0 0.0
2018-Jun-15 23:27N 29°57' W 093°09'0 0.0
2018-Jun-15 22:59N 29°57' W 093°09'0 0.0
2018-Jun-15 22:28N 29°57' W 093°09'0 0.0
2018-Jun-15 21:28N 29°57' W 093°09'0 0.0
2018-Jun-15 20:42N 29°57' W 093°09'0 0.0
2018-Jun-15 20:26N 29°57' W 093°09'0 0.3
2018-Jun-15 19:58N 29°57' W 093°09'4 0.9
2018-Jun-15 15:59N 29°56' W 093°05'3 6.6
2018-Jun-15 15:30N 29°56' W 093°08'1 0.4
2018-Jun-15 13:33N 29°57' W 093°09'0 0.0
2018-Jun-15 13:13N 29°57' W 093°09'0 0.2
2018-Jun-15 13:00N 29°57' W 093°09'0 0.1
2018-Jun-15 11:50N 29°57' W 093°09'0 0.0
2018-Jun-15 08:43N 29°57' W 093°09'0 0.2
2018-Jun-15 08:30N 29°57' W 093°09'0 0.0
2018-Jun-15 08:00N 29°57' W 093°09'0 0.0
2018-Jun-15 07:30N 29°57' W 093°09'0 0.0
2018-Jun-15 06:46N 29°57' W 093°09'0 0.2
2018-Jun-15 06:24N 29°57' W 093°09'0 0.1
2018-Jun-15 06:00N 29°57' W 093°09'0 0.0
2018-Jun-15 05:30N 29°57' W 093°09'0 0.1
2018-Jun-15 04:50N 29°57' W 093°09'0 0.0
2018-Jun-15 04:28N 29°57' W 093°09'0 0.1
2018-Jun-15 03:59N 29°57' W 093°09'0 0.1
2018-Jun-15 03:26N 29°57' W 093°09'0 0.1
2018-Jun-15 03:00N 29°57' W 093°09'0 0.0
2018-Jun-15 02:30N 29°57' W 093°09'0 0.4
2018-Jun-15 01:58N 29°57' W 093°09'0 0.0
2018-Jun-15 01:29N 29°57' W 093°09'0 0.0
2018-Jun-15 00:58N 29°57' W 093°09'0 0.2
2018-Jun-15 00:30N 29°57' W 093°09'0 0.0
2018-Jun-14 17:05N 29°56' W 093°09'0 0.2
2018-Jun-14 17:00N 29°56' W 093°09'0 0.1
2018-Jun-14 16:30N 29°56' W 093°09'0 0.0
2018-Jun-14 16:00N 29°56' W 093°09'0 0.0
2018-Jun-14 15:29N 29°56' W 093°09'0 0.0
2018-Jun-14 15:00N 29°56' W 093°09'0 0.0
2018-Jun-14 14:30N 29°56' W 093°09'0 0.0
2018-Jun-14 13:49N 29°56' W 093°09'0 0.1
2018-Jun-14 13:29N 29°56' W 093°09'0 0.8
2018-Jun-14 12:58N 29°57' W 093°09'0 0.3
2018-Jun-14 12:18N 29°57' W 093°09'0 0.0
2018-Jun-14 11:36N 29°57' W 093°09'0 1.8
2018-Jun-14 11:30N 29°57' W 093°09'0 0.1
2018-Jun-14 10:38N 29°56' W 093°09'0 0.0
2018-Jun-14 10:30N 29°56' W 093°09'0 0.0
2018-Jun-14 10:00N 29°56' W 093°09'1 2.7
2018-Jun-14 09:28N 29°56' W 093°07'2 2.8
2018-Jun-14 08:41N 29°56' W 093°05'0 0.0
2018-Jun-14 01:22N 29°56' W 093°04'2 4.9
2018-Jun-14 00:58N 29°56' W 093°07'2 4.0
2018-Jun-14 00:27N 29°56' W 093°09'0 0.0
2018-Jun-13 23:59N 29°56' W 093°09'0 0.3
2018-Jun-13 23:30N 29°56' W 093°09'1 1.2
2018-Jun-13 22:55N 29°57' W 093°09'1 1.2
2018-Jun-13 22:25N 29°56' W 093°09'37 4.6
2018-Jun-13 14:20N 29°53' W 092°27'2 5.4
2018-Jun-13 14:00N 29°53' W 092°24'3 4.9
2018-Jun-13 13:22N 29°51' W 092°22'2 5.1
2018-Jun-13 13:00N 29°50' W 092°20'2 4.9
2018-Jun-13 12:30N 29°49' W 092°17'3 5.3
2018-Jun-13 11:59N 29°48' W 092°14'2 4.2
2018-Jun-13 11:30N 29°47' W 092°12'2 3.8
2018-Jun-13 11:00N 29°47' W 092°10'3 5.4
2018-Jun-13 10:30N 29°47' W 092°07'3 5.3
2018-Jun-13 10:00N 29°48' W 092°05'3 5.3
2018-Jun-13 09:30N 29°49' W 092°02'3 5.3
2018-Jun-13 09:00N 29°50' W 091°59'  
Track history (hours):
 
Tides and Currents Weather Stations Pressure Air Temp Water Temp Dewpoint Dewpoint Depression Visibility Wind Speed Wind Dir Waves Ship Positions

Amanda A

Owner: REC Marine LLC, Galliano, LA. More information available from US FCC via Universal Licensing System.

Last reported at 2018-Jun-21 21:00 UTC. Time now 2018-Jun-21 21:23 UTC.
Position N 29°56' W 093°08'.

Length 6 m; draft 1.9 m.

Type: Tug. MMSI: 367506440.

Date/timePositionNaut miles runAvg speedWind from/ knotsBaromVisibWave heightAir tempDewpointWater temp
2018-Jun-21 21:00N 29°56' W 093°08'0 0.1
2018-Jun-21 19:01N 29°56' W 093°08'0 0.4
2018-Jun-21 18:57N 29°56' W 093°08'0 0.9
2018-Jun-21 18:25N 29°56' W 093°08'0 0.4
2018-Jun-21 17:57N 29°57' W 093°08'0 0.0
2018-Jun-21 17:23N 29°57' W 093°08'0 0.2
2018-Jun-21 15:34N 29°56' W 093°08'3 2.3
2018-Jun-21 14:17N 29°56' W 093°05'2 7.7
2018-Jun-21 13:59N 29°56' W 093°07'1 0.1
2018-Jun-20 23:39N 29°56' W 093°08'0 0.1
2018-Jun-20 22:28N 29°56' W 093°08'1 1.5
2018-Jun-20 22:00N 29°57' W 093°09'0 0.4
2018-Jun-20 21:27N 29°57' W 093°09'0 0.0
2018-Jun-20 20:59N 29°57' W 093°09'0 0.0
2018-Jun-20 20:30N 29°57' W 093°09'0 0.0
2018-Jun-20 20:00N 29°57' W 093°09'0 0.0
2018-Jun-20 19:29N 29°57' W 093°09'0 0.0
2018-Jun-20 19:00N 29°57' W 093°09'0 0.0
2018-Jun-20 15:37N 29°57' W 093°09'0 0.3
2018-Jun-20 15:30N 29°57' W 093°09'3 0.4
2018-Jun-20 07:22N 29°56' W 093°05'2 5.3
2018-Jun-20 06:59N 29°56' W 093°07'2 2.7
2018-Jun-20 06:21N 29°56' W 093°09'1 0.3
2018-Jun-20 03:35N 29°57' W 093°09'0 0.4
2018-Jun-20 03:27N 29°57' W 093°09'0 0.1
2018-Jun-20 03:00N 29°57' W 093°09'0 0.0
2018-Jun-20 02:30N 29°57' W 093°09'0 0.0
2018-Jun-20 02:00N 29°57' W 093°09'0 0.0
2018-Jun-20 01:30N 29°57' W 093°09'0 0.0
2018-Jun-20 01:00N 29°57' W 093°09'0 0.0
2018-Jun-20 00:30N 29°57' W 093°09'0 0.0
2018-Jun-20 00:00N 29°57' W 093°09'0 0.0
2018-Jun-19 23:30N 29°57' W 093°09'0 0.0
2018-Jun-19 23:00N 29°57' W 093°09'0 0.0
2018-Jun-19 22:30N 29°57' W 093°09'0 0.0
2018-Jun-19 22:00N 29°57' W 093°09'0 0.0
2018-Jun-19 21:30N 29°57' W 093°09'0 0.0
2018-Jun-19 21:00N 29°57' W 093°09'0 0.0
2018-Jun-19 20:30N 29°57' W 093°09'0 0.0
2018-Jun-19 20:00N 29°57' W 093°09'0 0.0
2018-Jun-19 19:30N 29°57' W 093°09'0 0.0
2018-Jun-19 19:00N 29°57' W 093°09'0 0.0
2018-Jun-19 18:30N 29°57' W 093°09'0 0.0
2018-Jun-19 18:00N 29°57' W 093°09'0 0.0
2018-Jun-19 17:30N 29°57' W 093°09'0 0.0
2018-Jun-19 16:59N 29°57' W 093°09'0 0.0
2018-Jun-19 16:30N 29°57' W 093°09'0 0.0
2018-Jun-19 15:57N 29°57' W 093°09'0 0.0
2018-Jun-19 15:30N 29°57' W 093°09'0 0.0
2018-Jun-19 15:00N 29°57' W 093°09'0 0.0
2018-Jun-19 14:30N 29°57' W 093°09'0 0.0
2018-Jun-19 07:20N 29°57' W 093°09'0 0.0
2018-Jun-19 06:48N 29°57' W 093°09'0 0.0
2018-Jun-19 06:14N 29°57' W 093°09'0 0.0
2018-Jun-19 05:57N 29°57' W 093°09'0 0.0
2018-Jun-19 05:23N 29°57' W 093°09'0 0.0
2018-Jun-19 04:58N 29°57' W 093°09'0 0.0
2018-Jun-19 04:30N 29°57' W 093°09'0 0.0
2018-Jun-19 04:00N 29°57' W 093°09'0 0.0
2018-Jun-19 03:29N 29°57' W 093°09'0 0.0
2018-Jun-19 02:59N 29°57' W 093°09'0 0.0
2018-Jun-19 02:06N 29°57' W 093°09'0 0.0
2018-Jun-19 02:00N 29°57' W 093°09'0 0.0
2018-Jun-19 00:49N 29°57' W 093°09'0 0.0
2018-Jun-19 00:29N 29°57' W 093°09'0 1.0
2018-Jun-18 23:58N 29°56' W 093°09'4 0.1
2018-Jun-17 08:37N 29°56' W 093°05'1 4.8
2018-Jun-17 08:26N 29°56' W 093°06'2 5.0
2018-Jun-17 08:00N 29°56' W 093°08'1 1.6
2018-Jun-17 07:30N 29°57' W 093°09'0 0.3
2018-Jun-17 07:00N 29°57' W 093°09'0 0.1
2018-Jun-17 05:47N 29°57' W 093°09'0 0.0
2018-Jun-17 05:24N 29°57' W 093°09'0 0.0
2018-Jun-17 04:59N 29°57' W 093°09'0 0.0
2018-Jun-17 04:17N 29°57' W 093°09'0 0.0
2018-Jun-17 03:55N 29°57' W 093°09'0 0.0
2018-Jun-17 03:29N 29°57' W 093°09'0 0.0
2018-Jun-17 02:59N 29°57' W 093°09'0 0.0
2018-Jun-17 02:26N 29°57' W 093°09'0 0.0
2018-Jun-17 01:59N 29°57' W 093°09'0 0.0
2018-Jun-17 01:25N 29°57' W 093°09'0 0.0
2018-Jun-17 00:29N 29°57' W 093°09'0 0.2
2018-Jun-16 23:56N 29°57' W 093°09'2 0.9
2018-Jun-16 21:23N 29°56' W 093°06'3 6.4
2018-Jun-16 20:59N 29°56' W 093°09'1 1.6
2018-Jun-16 20:28N 29°57' W 093°09'0 0.2
2018-Jun-16 20:00N 29°57' W 093°09'0 0.0
2018-Jun-16 19:30N 29°57' W 093°09'0 0.0
2018-Jun-16 18:59N 29°57' W 093°09'2 2.9
2018-Jun-16 18:24N 29°56' W 093°07'2 5.5
2018-Jun-16 18:00N 29°56' W 093°04'0 0.0
2018-Jun-16 17:30N 29°56' W 093°04'0 0.5
2018-Jun-16 16:58N 29°56' W 093°05'3 6.9
2018-Jun-16 16:30N 29°56' W 093°08'1 0.0
2018-Jun-16 00:51N 29°57' W 093°09'0 0.0
2018-Jun-16 00:27N 29°57' W 093°09'0 0.0
2018-Jun-15 23:27N 29°57' W 093°09'0 0.0
2018-Jun-15 22:59N 29°57' W 093°09'0 0.0
2018-Jun-15 22:28N 29°57' W 093°09'0 0.0
2018-Jun-15 21:28N 29°57' W 093°09'0 0.0
2018-Jun-15 20:42N 29°57' W 093°09'0 0.0
2018-Jun-15 20:26N 29°57' W 093°09'0 0.3
2018-Jun-15 19:58N 29°57' W 093°09'4 0.9
2018-Jun-15 15:59N 29°56' W 093°05'3 6.6
2018-Jun-15 15:30N 29°56' W 093°08'1 0.4
2018-Jun-15 13:33N 29°57' W 093°09'0 0.0
2018-Jun-15 13:13N 29°57' W 093°09'0 0.2
2018-Jun-15 13:00N 29°57' W 093°09'0 0.1
2018-Jun-15 11:50N 29°57' W 093°09'0 0.0
2018-Jun-15 08:43N 29°57' W 093°09'0 0.2
2018-Jun-15 08:30N 29°57' W 093°09'0 0.0
2018-Jun-15 08:00N 29°57' W 093°09'0 0.0
2018-Jun-15 07:30N 29°57' W 093°09'0 0.0
2018-Jun-15 06:46N 29°57' W 093°09'0 0.2
2018-Jun-15 06:24N 29°57' W 093°09'0 0.1
2018-Jun-15 06:00N 29°57' W 093°09'0 0.0
2018-Jun-15 05:30N 29°57' W 093°09'0 0.1
2018-Jun-15 04:50N 29°57' W 093°09'0 0.0
2018-Jun-15 04:28N 29°57' W 093°09'0 0.1
2018-Jun-15 03:59N 29°57' W 093°09'0 0.1
2018-Jun-15 03:26N 29°57' W 093°09'0 0.1
2018-Jun-15 03:00N 29°57' W 093°09'0 0.0
2018-Jun-15 02:30N 29°57' W 093°09'0 0.4
2018-Jun-15 01:58N 29°57' W 093°09'0 0.0
2018-Jun-15 01:29N 29°57' W 093°09'0 0.0
2018-Jun-15 00:58N 29°57' W 093°09'0 0.2
2018-Jun-15 00:30N 29°57' W 093°09'0 0.0
2018-Jun-14 17:05N 29°56' W 093°09'0 0.2
2018-Jun-14 17:00N 29°56' W 093°09'0 0.1
2018-Jun-14 16:30N 29°56' W 093°09'0 0.0
2018-Jun-14 16:00N 29°56' W 093°09'0 0.0
2018-Jun-14 15:29N 29°56' W 093°09'0 0.0
2018-Jun-14 15:00N 29°56' W 093°09'0 0.0
2018-Jun-14 14:30N 29°56' W 093°09'0 0.0
2018-Jun-14 13:49N 29°56' W 093°09'0 0.1
2018-Jun-14 13:29N 29°56' W 093°09'0 0.8
2018-Jun-14 12:58N 29°57' W 093°09'0 0.3
2018-Jun-14 12:18N 29°57' W 093°09'0 0.0
2018-Jun-14 11:36N 29°57' W 093°09'0 1.8
2018-Jun-14 11:30N 29°57' W 093°09'0 0.1
2018-Jun-14 10:38N 29°56' W 093°09'0 0.0
2018-Jun-14 10:30N 29°56' W 093°09'0 0.0
2018-Jun-14 10:00N 29°56' W 093°09'1 2.7
2018-Jun-14 09:28N 29°56' W 093°07'2 2.8
2018-Jun-14 08:41N 29°56' W 093°05'0 0.0
2018-Jun-14 01:22N 29°56' W 093°04'2 4.9
2018-Jun-14 00:58N 29°56' W 093°07'2 4.0
2018-Jun-14 00:27N 29°56' W 093°09'0 0.0
2018-Jun-13 23:59N 29°56' W 093°09'0 0.3
2018-Jun-13 23:30N 29°56' W 093°09'1 1.2
2018-Jun-13 22:55N 29°57' W 093°09'1 1.2
2018-Jun-13 22:25N 29°56' W 093°09'37 4.6
2018-Jun-13 14:20N 29°53' W 092°27'2 5.4
2018-Jun-13 14:00N 29°53' W 092°24'3 4.9
2018-Jun-13 13:22N 29°51' W 092°22'2 5.1
2018-Jun-13 13:00N 29°50' W 092°20'2 4.9
2018-Jun-13 12:30N 29°49' W 092°17'3 5.3
2018-Jun-13 11:59N 29°48' W 092°14'2 4.2
2018-Jun-13 11:30N 29°47' W 092°12'2 3.8
2018-Jun-13 11:00N 29°47' W 092°10'3 5.4
2018-Jun-13 10:30N 29°47' W 092°07'3 5.3
2018-Jun-13 10:00N 29°48' W 092°05'3 5.3
2018-Jun-13 09:30N 29°49' W 092°02'3 5.3
2018-Jun-13 09:00N 29°50' W 091°59'  

Dump ship's entire track history